Time,TemperatureF,DewpointF,PressureIn,WindDirection,WindDirectionDegrees,WindSpeedMPH,WindSpeedGustMPH,Humidity,HourlyPrecipIn,Conditions,Clouds,dailyrainin,SoftwareType,DateUTC
2013-09-08 00:03:00,76.5,70.0,29.93,ESE,111,0.0,1.0,80,0.00,,,0.00,weatherlink.com 1.10,2013-09-08 05:03:00,
2013-09-08 00:18:00,75.6,70.0,29.93,ESE,111,0.0,0.0,82,0.00,,,0.00,weatherlink.com 1.10,2013-09-08 05:18:00,
2013-09-08 00:33:00,75.3,70.0,29.93,ESE,111,0.0,1.0,84,0.00,,,0.00,weatherlink.com 1.10,2013-09-08 05:33:00,
2013-09-08 00:48:00,74.8,70.0,29.93,ESE,111,0.0,1.0,86,0.00,,,0.00,weatherlink.com 1.10,2013-09-08 05:48:00,
2013-09-08 01:04:00,74.1,70.0,29.93,ESE,111,0.0,1.0,87,0.00,,,0.00,weatherlink.com 1.10,2013-09-08 06:04:00,
2013-09-08 01:19:00,73.9,70.0,29.93,ESE,111,0.0,1.0,87,0.00,,,0.00,weatherlink.com 1.10,2013-09-08 06:19:00,
2013-09-08 01:34:00,73.7,69.0,29.93,ESE,111,0.0,1.0,86,0.00,,,0.00,weatherlink.com 1.10,2013-09-08 06:34:00,
2013-09-08 01:49:00,73.2,69.0,29.93,ESE,111,0.0,0.0,86,0.00,,,0.00,weatherlink.com 1.10,2013-09-08 06:49:00,
2013-09-08 02:04:00,72.7,68.0,29.92,ESE,111,0.0,0.0,86,0.00,,,0.00,weatherlink.com 1.10,2013-09-08 07:04:00,
2013-09-08 02:19:00,72.3,68.0,29.92,ESE,111,0.0,0.0,87,0.00,,,0.00,weatherlink.com 1.10,2013-09-08 07:19:00,
2013-09-08 02:34:00,72.0,68.0,29.91,ESE,111,0.0,0.0,88,0.00,,,0.00,weatherlink.com 1.10,2013-09-08 07:34:00,
2013-09-08 02:49:00,71.7,68.0,29.91,ESE,111,0.0,0.0,88,0.00,,,0.00,weatherlink.com 1.10,2013-09-08 07:49:00,
2013-09-08 03:04:00,71.5,68.0,29.91,ESE,111,0.0,0.0,88,0.00,,,0.00,weatherlink.com 1.10,2013-09-08 08:04:00,
2013-09-08 03:19:00,71.8,68.0,29.91,ESE,111,0.0,1.0,86,0.00,,,0.00,weatherlink.com 1.10,2013-09-08 08:19:00,
2013-09-08 03:34:00,71.7,67.0,29.91,ESE,111,0.0,0.0,86,0.00,,,0.00,weatherlink.com 1.10,2013-09-08 08:34:00,
2013-09-08 03:49:00,71.4,67.0,29.91,ESE,111,0.0,2.0,86,0.00,,,0.00,weatherlink.com 1.10,2013-09-08 08:49:00,
2013-09-08 04:04:00,72.4,67.0,29.91,South,185,0.0,1.0,83,0.00,,,0.00,weatherlink.com 1.10,2013-09-08 09:04:00,
2013-09-08 04:19:00,74.0,67.0,29.90,South,188,0.0,3.0,79,0.00,,,0.00,weatherlink.com 1.10,2013-09-08 09:19:00,
2013-09-08 04:34:00,74.6,67.0,29.90,South,170,1.0,2.0,78,0.00,,,0.00,weatherlink.com 1.10,2013-09-08 09:34:00,
2013-09-08 04:49:00,74.8,67.0,29.91,SW,228,2.0,3.0,77,0.00,,,0.00,weatherlink.com 1.10,2013-09-08 09:49:00,
2013-09-08 05:04:00,74.6,67.0,29.91,South,172,0.0,2.0,78,0.00,,,0.00,weatherlink.com 1.10,2013-09-08 10:04:00,
2013-09-08 05:19:00,73.8,68.0,29.91,South,172,0.0,1.0,81,0.00,,,0.00,weatherlink.com 1.10,2013-09-08 10:19:00,
2013-09-08 05:34:00,72.3,67.0,29.91,South,172,0.0,0.0,84,0.00,,,0.00,weatherlink.com 1.10,2013-09-08 10:34:00,
2013-09-08 05:49:00,71.4,67.0,29.91,South,172,0.0,0.0,86,0.00,,,0.00,weatherlink.com 1.10,2013-09-08 10:49:00,
2013-09-08 06:04:00,71.0,67.0,29.92,South,172,0.0,0.0,88,0.00,,,0.00,weatherlink.com 1.10,2013-09-08 11:04:00,
2013-09-08 06:19:00,70.5,67.0,29.92,South,172,0.0,0.0,88,0.00,,,0.00,weatherlink.com 1.10,2013-09-08 11:19:00,
2013-09-08 06:34:00,70.3,67.0,29.92,South,172,0.0,0.0,88,0.00,,,0.00,weatherlink.com 1.10,2013-09-08 11:34:00,
2013-09-08 06:49:00,70.0,67.0,29.93,South,172,0.0,0.0,89,0.00,,,0.00,weatherlink.com 1.10,2013-09-08 11:49:00,
2013-09-08 07:04:00,70.1,67.0,29.93,South,172,0.0,0.0,89,0.00,,,0.00,weatherlink.com 1.10,2013-09-08 12:04:00,
2013-09-08 07:19:00,71.3,67.0,29.93,South,172,1.0,1.0,87,0.00,,,0.00,weatherlink.com 1.10,2013-09-08 12:19:00,
2013-09-08 07:34:00,73.2,68.0,29.93,South,173,0.0,1.0,84,0.00,,,0.00,weatherlink.com 1.10,2013-09-08 12:34:00,
2013-09-08 07:49:00,75.1,69.0,29.93,South,173,0.0,1.0,80,0.00,,,0.00,weatherlink.com 1.10,2013-09-08 12:49:00,
2013-09-08 08:04:00,76.7,69.0,29.93,South,173,1.0,1.0,76,0.00,,,0.00,weatherlink.com 1.10,2013-09-08 13:04:00,
2013-09-08 08:19:00,77.2,69.0,29.93,South,179,0.0,4.0,75,0.00,,,0.00,weatherlink.com 1.10,2013-09-08 13:19:00,
2013-09-08 08:34:00,77.7,69.0,29.93,South,173,2.0,5.0,74,0.00,,,0.00,weatherlink.com 1.10,2013-09-08 13:34:00,
2013-09-08 08:49:00,79.2,69.0,29.93,South,177,0.0,5.0,71,0.00,,,0.00,weatherlink.com 1.10,2013-09-08 13:49:00,
2013-09-08 09:04:00,80.5,69.0,29.94,South,178,1.0,4.0,68,0.00,,,0.00,weatherlink.com 1.10,2013-09-08 14:04:00,
2013-09-08 09:19:00,82.5,70.0,29.94,South,179,0.0,4.0,65,0.00,,,0.00,weatherlink.com 1.10,2013-09-08 14:19:00,
2013-09-08 09:35:00,84.2,70.0,29.94,South,176,0.0,3.0,62,0.00,,,0.00,weatherlink.com 1.10,2013-09-08 14:35:00,
2013-09-08 09:50:00,85.9,70.0,29.94,SSE,166,1.0,3.0,59,0.00,,,0.00,weatherlink.com 1.10,2013-09-08 14:50:00,
2013-09-08 10:05:00,87.4,70.0,29.94,South,177,0.0,3.0,57,0.00,,,0.00,weatherlink.com 1.10,2013-09-08 15:05:00,
2013-09-08 10:20:00,88.6,70.0,29.95,SSW,210,0.0,4.0,55,0.00,,,0.00,weatherlink.com 1.10,2013-09-08 15:20:00,
2013-09-08 10:35:00,90.5,71.0,29.95,South,189,1.0,3.0,52,0.00,,,0.00,weatherlink.com 1.10,2013-09-08 15:35:00,
2013-09-08 10:50:00,91.7,70.0,29.94,WNW,291,1.0,3.0,49,0.00,,,0.00,weatherlink.com 1.10,2013-09-08 15:50:00,
2013-09-08 11:05:00,92.7,70.0,29.94,SSW,208,2.0,5.0,47,0.00,,,0.00,weatherlink.com 1.10,2013-09-08 16:05:00,
2013-09-08 11:20:00,93.2,69.0,29.93,South,172,1.0,3.0,46,0.00,,,0.00,weatherlink.com 1.10,2013-09-08 16:20:00,
2013-09-08 11:35:00,94.5,69.0,29.93,South,171,1.0,3.0,44,0.00,,,0.00,weatherlink.com 1.10,2013-09-08 16:35:00,
2013-09-08 11:50:00,95.0,68.0,29.93,NNW,328,1.0,4.0,42,0.00,,,0.00,weatherlink.com 1.10,2013-09-08 16:50:00,
2013-09-08 12:05:00,96.8,69.0,29.93,WNW,291,2.0,4.0,40,0.00,,,0.00,weatherlink.com 1.10,2013-09-08 17:05:00,
2013-09-08 12:20:00,97.2,68.0,29.92,North,4,1.0,4.0,39,0.00,,,0.00,weatherlink.com 1.10,2013-09-08 17:20:00,
2013-09-08 12:35:00,97.4,69.0,29.92,NNW,344,0.0,4.0,39,0.00,,,0.00,weatherlink.com 1.10,2013-09-08 17:35:00,
2013-09-08 12:50:00,96.7,68.0,29.92,North,359,2.0,6.0,39,0.00,,,0.00,weatherlink.com 1.10,2013-09-08 17:50:00,
2013-09-08 13:05:00,96.2,68.0,29.91,South,174,1.0,5.0,40,0.00,,,0.00,weatherlink.com 1.10,2013-09-08 18:05:00,
2013-09-08 13:20:00,97.9,69.0,29.91,SSE,157,1.0,4.0,39,0.00,,,0.00,weatherlink.com 1.10,2013-09-08 18:20:00,
2013-09-08 13:35:00,98.7,68.0,29.91,SSE,165,2.0,5.0,37,0.00,,,0.00,weatherlink.com 1.10,2013-09-08 18:35:00,
2013-09-08 13:50:00,98.8,67.0,29.90,NNW,339,4.0,5.0,35,0.00,,,0.00,weatherlink.com 1.10,2013-09-08 18:50:00,
2013-09-08 14:05:00,98.3,68.0,29.89,North,359,4.0,5.0,37,0.00,,,0.00,weatherlink.com 1.10,2013-09-08 19:05:00,
2013-09-08 14:20:00,97.1,67.0,29.88,NNW,338,3.0,6.0,37,0.00,,,0.00,weatherlink.com 1.10,2013-09-08 19:20:00,
2013-09-08 14:35:00,96.7,67.0,29.88,NNW,343,3.0,6.0,38,0.00,,,0.00,weatherlink.com 1.10,2013-09-08 19:35:00,
2013-09-08 14:50:00,96.1,67.0,29.87,North,4,1.0,6.0,39,0.00,,,0.00,weatherlink.com 1.10,2013-09-08 19:50:00,
2013-09-08 15:05:00,97.5,68.0,29.87,NNW,327,1.0,3.0,38,0.00,,,0.00,weatherlink.com 1.10,2013-09-08 20:05:00,
2013-09-08 15:20:00,97.0,67.0,29.86,North,354,0.0,4.0,38,0.00,,,0.00,weatherlink.com 1.10,2013-09-08 20:20:00,
2013-09-08 15:35:00,97.3,68.0,29.86,NNW,340,2.0,4.0,38,0.00,,,0.00,weatherlink.com 1.10,2013-09-08 20:35:00,
2013-09-08 15:50:00,96.2,67.0,29.86,NW,320,1.0,5.0,39,0.00,,,0.00,weatherlink.com 1.10,2013-09-08 20:50:00,
2013-09-08 16:05:00,96.6,67.0,29.86,NW,323,3.0,4.0,38,0.00,,,0.00,weatherlink.com 1.10,2013-09-08 21:05:00,
2013-09-08 16:20:00,96.4,67.0,29.85,North,349,4.0,5.0,38,0.00,,,0.00,weatherlink.com 1.10,2013-09-08 21:20:00,
2013-09-08 16:36:00,95.8,66.0,29.84,NNE,25,2.0,5.0,38,0.00,,,0.00,weatherlink.com 1.10,2013-09-08 21:36:00,
2013-09-08 16:51:00,95.7,66.0,29.84,North,359,3.0,5.0,38,0.00,,,0.00,weatherlink.com 1.10,2013-09-08 21:51:00,
2013-09-08 17:06:00,95.0,66.0,29.84,NNW,337,0.0,3.0,39,0.00,,,0.00,weatherlink.com 1.10,2013-09-08 22:06:00,
2013-09-08 17:21:00,95.0,66.0,29.84,North,354,4.0,5.0,39,0.00,,,0.00,weatherlink.com 1.10,2013-09-08 22:21:00,
2013-09-08 17:36:00,95.2,67.0,29.84,South,172,1.0,6.0,39,0.00,,,0.00,weatherlink.com 1.10,2013-09-08 22:36:00,
2013-09-08 17:51:00,94.9,68.0,29.84,South,177,2.0,4.0,41,0.00,,,0.00,weatherlink.com 1.10,2013-09-08 22:51:00,
2013-09-08 18:06:00,94.4,68.0,29.83,SSE,167,2.0,4.0,42,0.00,,,0.00,weatherlink.com 1.10,2013-09-08 23:06:00,
2013-09-08 18:21:00,94.3,68.0,29.84,SSW,195,0.0,5.0,42,0.00,,,0.00,weatherlink.com 1.10,2013-09-08 23:21:00,
2013-09-08 18:36:00,94.3,68.0,29.84,SSW,195,0.0,2.0,42,0.00,,,0.00,weatherlink.com 1.10,2013-09-08 23:36:00,
2013-09-08 18:51:00,94.1,69.0,29.84,SE,133,1.0,3.0,44,0.00,,,0.00,weatherlink.com 1.10,2013-09-08 23:51:00,
2013-09-08 19:06:00,92.9,70.0,29.84,SE,133,1.0,1.0,48,0.00,,,0.00,weatherlink.com 1.10,2013-09-09 00:06:00,
2013-09-08 19:21:00,90.8,71.0,29.84,SE,133,0.0,1.0,52,0.00,,,0.00,weatherlink.com 1.10,2013-09-09 00:21:00,
2013-09-08 19:36:00,89.7,71.0,29.85,SE,133,0.0,0.0,54,0.00,,,0.00,weatherlink.com 1.10,2013-09-09 00:36:00,
2013-09-08 19:51:00,88.8,72.0,29.86,SE,133,0.0,0.0,57,0.00,,,0.00,weatherlink.com 1.10,2013-09-09 00:51:00,
2013-09-08 20:06:00,87.8,71.0,29.86,SE,133,0.0,0.0,58,0.00,,,0.00,weatherlink.com 1.10,2013-09-09 01:06:00,
2013-09-08 20:21:00,87.2,71.0,29.86,SE,133,0.0,0.0,58,0.00,,,0.00,weatherlink.com 1.10,2013-09-09 01:21:00,
2013-09-08 20:36:00,86.5,71.0,29.86,SE,133,0.0,0.0,61,0.00,,,0.00,weatherlink.com 1.10,2013-09-09 01:36:00,
2013-09-08 20:51:00,85.5,72.0,29.87,SE,133,0.0,0.0,64,0.00,,,0.00,weatherlink.com 1.10,2013-09-09 01:51:00,
2013-09-08 21:06:00,84.7,71.0,29.88,SE,133,0.0,0.0,64,0.00,,,0.00,weatherlink.com 1.10,2013-09-09 02:06:00,
2013-09-08 21:21:00,84.2,72.0,29.88,SE,133,0.0,0.0,67,0.00,,,0.00,weatherlink.com 1.10,2013-09-09 02:21:00,
2013-09-08 21:36:00,83.7,72.0,29.88,SE,133,0.0,1.0,68,0.00,,,0.00,weatherlink.com 1.10,2013-09-09 02:36:00,
2013-09-08 21:51:00,83.5,71.0,29.88,SE,133,0.0,0.0,67,0.00,,,0.00,weatherlink.com 1.10,2013-09-09 02:51:00,
2013-09-08 22:06:00,83.1,71.0,29.89,SE,133,0.0,0.0,67,0.00,,,0.00,weatherlink.com 1.10,2013-09-09 03:06:00,
2013-09-08 22:21:00,82.7,71.0,29.89,SE,133,0.0,0.0,67,0.00,,,0.00,weatherlink.com 1.10,2013-09-09 03:21:00,
2013-09-08 22:36:00,82.7,71.0,29.89,SE,133,0.0,0.0,67,0.00,,,0.00,weatherlink.com 1.10,2013-09-09 03:36:00,
2013-09-08 22:51:00,83.9,69.0,29.89,SE,134,0.0,1.0,62,0.00,,,0.00,weatherlink.com 1.10,2013-09-09 03:51:00,
2013-09-08 23:06:00,84.9,69.0,29.89,SE,134,0.0,1.0,60,0.00,,,0.00,weatherlink.com 1.10,2013-09-09 04:06:00,
2013-09-08 23:21:00,85.1,70.0,29.89,SSE,165,0.0,2.0,60,0.00,,,0.00,weatherlink.com 1.10,2013-09-09 04:21:00,
2013-09-08 23:36:00,84.9,69.0,29.89,SSE,165,0.0,0.0,60,0.00,,,0.00,weatherlink.com 1.10,2013-09-09 04:36:00,
2013-09-08 23:51:00,84.8,70.0,29.89,SSE,165,0.0,1.0,61,0.00,,,0.00,weatherlink.com 1.10,2013-09-09 04:51:00,